»·PEaware :: SKW3186 KPHX-KSGU

SKW3186 :: KPHX-KSGU

FLIGHT INFORMATION

Flight Status: Arrived
Operator:
SkyWest Airlines
More flights by this operator :: More flights under this callsign
Pilot: Anonymous 11975 (11975)
Aircraft: CANADAIR CL-600 CRJ-700
(CRJ7)
More flights by this aircraft type
Origin: KPHX Phoenix Sky Harbor Intl
United States
Destination: KSGU St George Mun
United States
More flights between these airports :: More routes between these airports
Route: QUAKY1 GCN ETYIR PIETZ
File this flight plan on PilotEdge
Remarks:
Altitude:
(Current/Filed)
28,000ft
Speed:
(Current/Filed)
444kts
Departed: 26-Aug-22 04:14 PM
Arrived: 26-Aug-22 05:07 PM
Distance/Time
Traveled:
228nm/0:53
Distance/Time
To Go:
Arrived

Flight Plot

Page will automatically refresh every two minutes.

Flight plan parsing failed; only flown route is shown


Map Options




Map Legend


Flown Route
Filed Route
Departure Airport
Arrival Airport
Navaid (VOR, NDB)
Fix

Horizontal Profiles

Position Reports

Time Latitude Longitude Heading Altitude Ground
Speed
26-Aug-22 15:50 33.437019 -111.994936 92 1138ft 0kts
26-Aug-22 15:51 33.437019 -111.994936 92 1138ft 0kts
26-Aug-22 15:52 33.437019 -111.994936 92 1138ft 0kts
26-Aug-22 15:53 33.437019 -111.994936 92 1138ft 0kts
26-Aug-22 15:54 33.437019 -111.994936 92 1138ft 0kts
26-Aug-22 15:55 33.437019 -111.994936 92 1138ft 0kts
26-Aug-22 15:56 33.437019 -111.994936 92 1138ft 0kts
26-Aug-22 15:57 33.437019 -111.994936 92 1138ft 0kts
26-Aug-22 15:58 33.437019 -111.994936 92 1138ft 0kts
26-Aug-22 15:59 33.437019 -111.994936 92 1138ft 0kts
26-Aug-22 16:00 33.437019 -111.994936 92 1138ft 0kts
26-Aug-22 16:01 33.437019 -111.994936 92 1138ft 0kts
26-Aug-22 16:02 33.437025 -111.995092 92 1153ft 2kts
26-Aug-22 16:03 33.437292 -111.995334 359 1131ft 2kts
26-Aug-22 16:04 33.437448 -111.995334 359 1139ft 0kts
26-Aug-22 16:05 33.437448 -111.995334 359 1139ft 0kts
26-Aug-22 16:06 33.437448 -111.995334 359 1139ft 0kts
26-Aug-22 16:07 33.438315 -111.995339 359 1140ft 1kts
26-Aug-22 16:08 33.439043 -111.993952 89 1142ft 8kts
26-Aug-22 16:09 33.438287 -111.992284 180 1141ft 9kts
26-Aug-22 16:10 33.435003 -111.992290 180 1144ft 11kts
26-Aug-22 16:11 33.432054 -111.992687 225 1141ft 0kts
26-Aug-22 16:12 33.431836 -111.992939 223 1141ft 7kts
26-Aug-22 16:13 33.431041 -112.003853 269 1134ft 131kts
26-Aug-22 16:14 33.430867 -112.060694 273 3376ft 198kts
26-Aug-22 16:15 33.433967 -112.137085 271 6041ft 250kts
26-Aug-22 16:16 33.465248 -112.201540 356 9218ft 266kts
26-Aug-22 16:17 33.540947 -112.193455 5 12055ft 289kts
26-Aug-22 16:18 33.627044 -112.157328 38 13704ft 364kts
26-Aug-22 16:19 33.698953 -112.065295 46 16713ft 389kts
26-Aug-22 16:20 33.788025 -111.994842 11 19382ft 400kts
26-Aug-22 16:21 33.899346 -111.971629 5 21897ft 416kts
26-Aug-22 16:22 34.016196 -111.950179 6 24112ft 432kts
26-Aug-22 16:23 34.137050 -111.937486 350 26030ft 440kts
26-Aug-22 16:24 34.260318 -111.955125 351 27678ft 456kts
26-Aug-22 16:25 34.391198 -111.969041 352 27946ft 466kts
26-Aug-22 16:26 34.518998 -111.983091 351 27957ft 460kts
26-Aug-22 16:27 34.645909 -111.997128 351 28028ft 455kts
26-Aug-22 16:28 34.771579 -112.010783 351 28086ft 453kts
26-Aug-22 16:29 34.899677 -112.025468 351 28105ft 470kts
26-Aug-22 16:30 35.031246 -112.040359 351 28060ft 478kts
26-Aug-22 16:31 35.164356 -112.055717 351 28196ft 482kts
26-Aug-22 16:32 35.298085 -112.070769 351 28281ft 483kts
26-Aug-22 16:33 35.431423 -112.084825 352 28232ft 480kts
26-Aug-22 16:34 35.563920 -112.097978 350 28130ft 475kts
26-Aug-22 16:35 35.695105 -112.114787 350 28039ft 473kts
26-Aug-22 16:36 35.825534 -112.129391 351 27840ft 461kts
26-Aug-22 16:37 35.952740 -112.145358 349 28257ft 461kts
26-Aug-22 16:38 36.077677 -112.179702 341 28260ft 462kts
26-Aug-22 16:39 36.203305 -112.216783 343 28096ft 465kts
26-Aug-22 16:40 36.329575 -112.253260 343 28046ft 466kts
26-Aug-22 16:41 36.456132 -112.289322 342 28047ft 466kts
26-Aug-22 16:42 36.580916 -112.327044 342 26436ft 461kts
26-Aug-22 16:43 36.707270 -112.363390 344 24616ft 469kts
26-Aug-22 16:44 36.832948 -112.400986 343 23573ft 458kts
26-Aug-22 16:45 36.955154 -112.436707 344 22347ft 446kts
26-Aug-22 16:46 37.074658 -112.471835 344 21273ft 439kts
26-Aug-22 16:47 37.192898 -112.507491 344 20382ft 432kts
26-Aug-22 16:48 37.308486 -112.541531 345 19367ft 424kts
26-Aug-22 16:49 37.423282 -112.575945 344 18498ft 423kts
26-Aug-22 16:50 37.512485 -112.655291 284 17507ft 414kts
26-Aug-22 16:51 37.549188 -112.790725 288 16555ft 387kts
26-Aug-22 16:52 37.577198 -112.907593 281 15660ft 314kts
26-Aug-22 16:53 37.586579 -113.011630 275 15064ft 286kts
26-Aug-22 16:54 37.595022 -113.110074 274 14428ft 283kts
26-Aug-22 16:55 37.540075 -113.171987 198 13688ft 296kts
26-Aug-22 16:56 37.462101 -113.201072 207 12659ft 285kts
26-Aug-22 16:57 37.398231 -113.252426 213 11190ft 264kts
26-Aug-22 16:58 37.335085 -113.297758 210 9752ft 257kts
26-Aug-22 16:59 37.273829 -113.341841 211 8347ft 240kts
26-Aug-22 17:00 37.223706 -113.378712 211 7134ft 173kts
26-Aug-22 17:01 37.186339 -113.406000 212 6001ft 156kts
26-Aug-22 17:02 37.152542 -113.438930 220 5411ft 156kts
26-Aug-22 17:03 37.140575 -113.450644 212 5280ft 155kts
26-Aug-22 17:04 37.102233 -113.475949 201 4369ft 154kts
26-Aug-22 17:05 37.063652 -113.495937 205 3264ft 143kts
26-Aug-22 17:06 37.033841 -113.511673 203 2856ft 34kts
26-Aug-22 17:07 37.031382 -113.511813 112 2851ft 1kts
26-Aug-22 17:08 37.030855 -113.510206 111 2853ft 0kts
26-Aug-22 17:09 37.030855 -113.510206 111 2855ft 0kts
26-Aug-22 17:10 37.030855 -113.510206 111 2855ft 0kts
26-Aug-22 17:11 37.030855 -113.510206 111 2855ft 0kts
26-Aug-22 17:12 37.030855 -113.510206 111 2855ft 0kts

Navigation Log

Ident Type
Flight plan parsing failed, navigation log unavailable